Time;durP1;ratioP1;P1;durP2;ratioP2;P2;SDS_P1;SDS_P2;PMS_P1;PMS_P2;Temp;Humidity;BMP_temperature;BMP_pressure;BME280_temperature;BME280_humidity;BME280_pressure;Samples;Min_cycle;Max_cycle;Signal;HPM_P1;HPM_P2
2022/03/17 00:00:10;;;;;;;0.70;0.70;;;;;;;6.16;51.59;102009.16;103435;1280;96573;-63
2022/03/17 00:02:58;;;;;;;0.70;0.70;;;;;;;6.10;51.69;102011.85;103105;1280;138611;-63
2022/03/17 00:05:26;;;;;;;0.70;0.70;;;;;;;6.08;51.75;102017.10;103225;1281;99438;-63
2022/03/17 00:07:54;;;;;;;0.70;0.70;;;;;;;6.09;51.85;102016.78;103211;1281;138259;-64
2022/03/17 00:10:22;;;;;;;0.70;0.70;;;;;;;6.08;51.77;102018.17;103343;1280;97621;-63
2022/03/17 00:12:50;;;;;;;0.70;0.70;;;;;;;6.03;51.98;102021.08;102890;1282;138290;-64
2022/03/17 00:15:18;;;;;;;0.80;0.80;;;;;;;5.98;52.15;102024.15;103326;1280;111098;-63
2022/03/17 00:17:46;;;;;;;0.80;0.80;;;;;;;5.92;52.18;102028.60;103285;1281;99395;-63
2022/03/17 00:20:14;;;;;;;0.80;0.80;;;;;;;5.87;52.31;102035.73;103206;1279;138242;-66
2022/03/17 00:22:42;;;;;;;0.80;0.80;;;;;;;5.82;52.38;102037.91;103124;1281;97618;-64
2022/03/17 00:25:11;;;;;;;0.80;0.80;;;;;;;5.78;52.53;102037.31;103189;1280;138509;-62
2022/03/17 00:27:39;;;;;;;0.80;0.80;;;;;;;5.77;52.61;102042.21;102927;1281;424478;-63
2022/03/17 00:30:08;;;;;;;0.80;0.80;;;;;;;5.76;52.73;102040.09;103163;1281;99545;-64
2022/03/17 00:32:38;;;;;;;0.90;0.90;;;;;;;5.79;52.73;102040.50;103218;1281;138177;-63
2022/03/17 00:37:56;;;;;;;0.80;0.80;;;;;;;5.73;52.81;102042.51;103053;1281;138520;-64
2022/03/17 00:40:24;;;;;;;0.80;0.80;;;;;;;5.68;52.81;102039.41;103149;1280;110058;-64
2022/03/17 00:42:53;;;;;;;0.80;0.80;;;;;;;5.64;53.12;102041.44;103072;1281;138589;-63
2022/03/17 00:45:22;;;;;;;0.80;0.80;;;;;;;5.64;53.03;102040.74;103630;1281;108301;-67
2022/03/17 00:47:50;;;;;;;0.90;0.90;;;;;;;5.61;53.15;102039.80;103294;1281;96561;-63
2022/03/17 00:50:20;;;;;;;0.90;0.90;;;;;;;5.57;53.27;102040.94;103079;1281;138222;-64
2022/03/17 00:52:52;;;;;;;0.90;0.90;;;;;;;5.51;53.56;102041.36;103045;1281;111077;-62
2022/03/17 00:55:21;;;;;;;0.90;0.90;;;;;;;5.47;53.46;102043.91;103013;1281;139596;-64
2022/03/17 00:57:49;;;;;;;0.90;0.90;;;;;;;5.44;53.42;102041.91;103135;1281;108983;-64
2022/03/17 01:00:18;;;;;;;0.90;0.90;;;;;;;5.42;53.53;102041.50;103165;1282;96605;-63
2022/03/17 01:02:56;;;;;;;0.90;0.90;;;;;;;5.41;53.63;102042.20;103107;1281;138160;-63
2022/03/17 01:05:25;;;;;;;0.90;0.90;;;;;;;5.37;53.84;102048.27;103429;1281;111018;-62
2022/03/17 01:07:54;;;;;;;0.90;0.90;;;;;;;5.28;53.92;102049.66;103139;1281;138374;-65
2022/03/17 01:10:22;;;;;;;0.90;0.90;;;;;;;5.26;54.03;102046.80;103611;1281;108672;-63
2022/03/17 01:12:50;;;;;;;1.10;1.10;;;;;;;5.26;53.96;102050.14;103084;1281;138899;-63
2022/03/17 01:15:19;;;;;;;0.90;0.90;;;;;;;5.20;54.12;102049.31;103188;1281;96678;-63
2022/03/17 01:17:49;;;;;;;1.10;1.10;;;;;;;5.15;54.24;102050.62;103204;1282;111196;-64
2022/03/17 01:20:17;;;;;;;1.00;1.00;;;;;;;5.11;54.47;102049.11;103051;1281;138297;-63
2022/03/17 01:22:45;;;;;;;0.90;0.90;;;;;;;5.05;54.70;102052.67;103194;1281;108805;-63
2022/03/17 01:25:13;;;;;;;1.00;1.00;;;;;;;4.99;54.88;102055.86;102990;1282;140914;-62
2022/03/17 01:27:42;;;;;;;0.90;0.90;;;;;;;4.94;54.83;102054.70;103204;1281;97186;-64
2022/03/17 01:30:10;;;;;;;0.90;0.90;;;;;;;4.95;54.81;102058.07;103164;1282;110199;-63
2022/03/17 01:32:39;;;;;;;0.80;0.80;;;;;;;4.94;55.02;102055.58;103128;1281;138619;-64
2022/03/17 01:35:08;;;;;;;1.00;1.00;;;;;;;4.96;54.95;102054.94;103132;1281;107839;-64
2022/03/17 01:37:37;;;;;;;0.80;0.80;;;;;;;4.96;54.96;102055.30;103314;1281;138409;-64
2022/03/17 01:40:07;;;;;;;0.90;0.90;;;;;;;4.96;55.11;102052.45;103343;1281;96587;-62
2022/03/17 01:42:35;;;;;;;1.00;1.00;;;;;;;4.95;55.10;102053.66;103302;1281;110085;-63
2022/03/17 01:45:04;;;;;;;0.90;0.90;;;;;;;4.98;54.96;102059.01;103475;1281;139009;-64
2022/03/17 01:47:33;;;;;;;0.90;0.90;;;;;;;5.04;54.79;102060.03;103390;1281;107830;-65
2022/03/17 01:50:08;;;;;;;1.00;1.00;;;;;;;4.99;54.99;102060.64;103120;1281;138585;-63
2022/03/17 01:52:36;;;;;;;1.00;1.00;;;;;;;4.95;55.23;102060.16;103325;1281;96597;-61
2022/03/17 01:55:06;;;;;;;0.90;0.90;;;;;;;4.95;55.18;102060.35;102984;1282;138681;-64
2022/03/17 01:57:34;;;;;;;0.90;0.90;;;;;;;4.98;55.05;102061.65;103417;1280;99552;-63
2022/03/17 02:00:05;;;;;;;0.90;0.90;;;;;;;5.06;55.04;102063.59;103267;1281;109090;-64
2022/03/17 02:02:41;;;;;;;0.90;0.90;;;;;;;5.01;55.01;102065.08;103122;1281;138403;-65
2022/03/17 02:05:10;;;;;;;0.90;0.90;;;;;;;5.01;55.15;102067.35;103180;1282;97487;-63
2022/03/17 02:07:40;;;;;;;1.00;1.00;;;;;;;4.96;55.12;102071.98;103093;1281;138207;-64
2022/03/17 02:10:08;;;;;;;0.90;0.90;;;;;;;4.92;55.41;102068.39;103155;1281;98694;-64
2022/03/17 02:15:26;;;;;;;0.90;0.90;;;;;;;4.97;55.43;102073.61;103011;1281;139053;-63
2022/03/17 02:17:55;;;;;;;1.00;1.00;;;;;;;5.02;55.41;102077.60;103421;1281;96531;-64
2022/03/17 02:20:25;;;;;;;0.90;0.90;;;;;;;4.96;55.18;102076.58;103291;1281;138623;-64
2022/03/17 02:22:55;;;;;;;0.90;0.90;;;;;;;5.00;55.37;102077.90;103618;1281;99915;-63
2022/03/17 02:25:33;;;;;;;0.90;0.90;;;;;;;4.95;55.40;102081.13;103355;1281;138298;-64
2022/03/17 02:28:06;;;;;;;0.90;0.90;;;;;;;4.87;55.63;102087.09;103105;1281;96701;-63
2022/03/17 02:30:37;;;;;;;0.90;0.90;;;;;;;4.76;55.84;102085.93;103289;1281;97381;-64
2022/03/17 02:33:07;;;;;;;0.90;0.90;;;;;;;4.73;56.11;102090.61;103112;1281;139790;-64
2022/03/17 02:35:37;;;;;;;0.90;0.90;;;;;;;4.72;56.09;102092.00;103268;1281;99390;-65
2022/03/17 02:38:06;;;;;;;0.90;0.90;;;;;;;4.73;55.91;102092.38;103153;1281;138997;-64
2022/03/17 02:40:36;;;;;;;0.90;0.90;;;;;;;4.70;56.09;102092.64;103019;1281;96541;-63
2022/03/17 02:43:04;;;;;;;0.90;0.90;;;;;;;4.68;56.20;102094.73;103204;1281;138878;-64
2022/03/17 02:45:34;;;;;;;1.00;1.00;;;;;;;4.64;56.38;102090.39;103343;1281;111068;-63
2022/03/17 02:48:03;;;;;;;0.90;0.90;;;;;;;4.59;56.57;102089.56;103083;1282;99666;-63
2022/03/17 02:50:31;;;;;;;1.10;1.10;;;;;;;4.61;56.51;102089.43;102939;1281;139056;-64
2022/03/17 02:53:05;;;;;;;0.90;0.90;;;;;;;4.66;56.45;102095.55;103102;1281;99090;-64
2022/03/17 02:55:34;;;;;;;1.00;1.00;;;;;;;4.65;56.36;102093.23;103042;1281;140690;-64
2022/03/17 02:58:05;;;;;;;1.00;1.00;;;;;;;4.62;56.34;102101.23;103132;1281;111010;-64
2022/03/17 03:00:34;;;;;;;1.00;1.00;;;;;;;4.57;56.48;102100.94;103224;1281;99343;-62
2022/03/17 03:03:03;;;;;;;1.10;1.10;;;;;;;4.48;56.85;102100.55;102877;1282;139072;-63
2022/03/17 03:05:31;;;;;;;1.00;1.00;;;;;;;4.52;56.93;102101.35;103373;1281;97001;-62
2022/03/17 03:07:59;;;;;;;0.90;0.90;;;;;;;4.50;56.78;102102.35;102988;1281;138958;-64
2022/03/17 03:10:27;;;;;;;0.90;0.90;;;;;;;4.51;56.89;102101.86;103140;1281;111230;-64
2022/03/17 03:12:54;;;;;;;0.90;0.90;;;;;;;4.52;56.83;102106.80;103273;1281;98348;-64
2022/03/17 03:15:22;;;;;;;0.90;0.90;;;;;;;4.50;56.71;102107.97;103003;1281;138439;-63
2022/03/17 03:17:50;;;;;;;1.00;1.00;;;;;;;4.46;56.72;102107.00;103136;1281;96652;-63
2022/03/17 03:20:18;;;;;;;1.00;1.00;;;;;;;4.41;57.06;102114.61;103132;1281;138888;-63
2022/03/17 03:22:46;;;;;;;0.90;0.90;;;;;;;4.46;57.00;102115.80;103143;1281;111144;-63
2022/03/17 03:25:13;;;;;;;1.00;1.00;;;;;;;4.35;57.06;102118.14;103093;1281;139268;-65
2022/03/17 03:27:43;;;;;;;0.90;0.90;;;;;;;4.28;57.38;102124.45;103050;1281;109015;-65
2022/03/17 03:30:12;;;;;;;1.00;1.00;;;;;;;4.28;57.58;102125.70;103200;1281;97795;-63
2022/03/17 03:32:44;;;;;;;1.10;1.10;;;;;;;4.22;57.77;102130.79;103171;1281;138564;-64
2022/03/17 03:38:00;;;;;;;1.00;1.00;;;;;;;4.16;58.04;102137.65;103167;1281;139545;-64
2022/03/17 03:40:28;;;;;;;1.00;1.00;;;;;;;4.15;57.97;102143.08;103042;1282;108700;-63
2022/03/17 03:42:55;;;;;;;1.10;1.10;;;;;;;4.12;58.00;102141.24;103211;1281;97151;-64
2022/03/17 03:45:23;;;;;;;1.00;1.00;;;;;;;4.12;58.16;102146.87;103000;1282;138464;-64
2022/03/17 03:47:51;;;;;;;1.00;1.00;;;;;;;4.05;58.03;102148.59;103106;1281;111247;-64
2022/03/17 03:50:19;;;;;;;1.10;1.10;;;;;;;3.98;58.67;102153.84;103093;1281;139135;-62
2022/03/17 03:52:47;;;;;;;1.00;1.00;;;;;;;3.99;58.48;102155.45;103124;1281;109969;-64
2022/03/17 03:55:15;;;;;;;1.10;1.10;;;;;;;3.97;58.49;102159.97;103071;1281;139529;-62
2022/03/17 03:57:43;;;;;;;0.90;0.90;;;;;;;3.97;58.40;102165.23;103071;1281;96592;-63
2022/03/17 04:02:58;;;;;;;1.00;1.00;;;;;;;3.92;58.58;102164.89;102996;1284;151284;-64
2022/03/17 04:05:30;;;;;;;1.00;1.00;;;;;;;3.94;58.62;102166.56;103269;1281;108916;-62
2022/03/17 04:07:58;;;;;;;0.90;0.90;;;;;;;3.96;58.39;102169.77;102877;1284;139038;-63
2022/03/17 04:10:27;;;;;;;1.00;1.00;;;;;;;3.94;58.47;102177.27;103276;1281;98008;-63
2022/03/17 04:12:55;;;;;;;1.00;1.00;;;;;;;3.86;58.65;102180.74;103098;1282;111027;-63
2022/03/17 04:15:23;;;;;;;1.10;1.10;;;;;;;3.80;58.67;102184.41;103096;1280;138950;-64
2022/03/17 04:17:51;;;;;;;1.00;1.00;;;;;;;3.74;58.93;102185.27;103190;1281;110536;-63
2022/03/17 04:20:19;;;;;;;1.10;1.10;;;;;;;3.75;59.22;102186.55;102986;1281;139558;-63
2022/03/17 04:22:47;;;;;;;0.90;0.90;;;;;;;3.73;59.18;102190.52;103043;1282;97036;-64
2022/03/17 04:25:15;;;;;;;1.10;1.10;;;;;;;3.68;59.32;102194.40;103131;1281;139306;-64
2022/03/17 04:27:43;;;;;;;1.10;1.10;;;;;;;3.66;59.27;102194.00;103353;1281;99423;-63
2022/03/17 04:30:11;;;;;;;1.10;1.10;;;;;;;3.56;59.34;102200.55;103384;1281;108791;-65
2022/03/17 04:32:38;;;;;;;1.20;1.20;;;;;;;3.56;59.52;102197.89;103181;1281;139055;-63
2022/03/17 04:35:07;;;;;;;1.00;1.00;;;;;;;3.56;59.67;102195.79;103392;1281;96955;-64
2022/03/17 04:37:35;;;;;;;1.10;1.10;;;;;;;3.48;59.84;102198.04;103237;1281;138614;-65
2022/03/17 04:40:05;;;;;;;1.10;1.10;;;;;;;3.50;59.59;102205.98;103258;1281;99659;-64
2022/03/17 04:42:33;;;;;;;1.10;1.10;;;;;;;3.42;59.97;102203.79;103443;1281;108932;-64
2022/03/17 04:45:01;;;;;;;1.10;1.10;;;;;;;3.42;59.91;102208.35;103275;1281;139190;-63
2022/03/17 04:47:30;;;;;;;1.00;1.00;;;;;;;3.41;59.97;102208.86;103386;1281;96589;-63
2022/03/17 04:49:58;;;;;;;1.00;1.00;;;;;;;3.39;60.08;102208.27;103264;1281;138802;-64
2022/03/17 04:55:12;;;;;;;1.10;1.10;;;;;;;3.22;60.38;102217.52;103350;1281;138569;-63
2022/03/17 04:57:40;;;;;;;1.00;1.00;;;;;;;3.22;60.53;102219.80;103369;1281;97892;-63
2022/03/17 05:00:10;;;;;;;1.00;1.00;;;;;;;3.21;60.49;102224.88;103423;1281;97251;-65
2022/03/17 05:02:38;;;;;;;1.10;1.10;;;;;;;3.22;60.80;102224.39;103495;1281;138450;-65
2022/03/17 05:05:06;;;;;;;1.30;1.30;;;;;;;3.20;60.62;102227.45;103391;1281;99440;-64
2022/03/17 05:07:34;;;;;;;1.10;1.10;;;;;;;3.09;61.29;102231.64;103083;1281;138448;-63
2022/03/17 05:10:02;;;;;;;1.20;1.20;;;;;;;2.99;61.35;102229.90;103392;1281;96617;-65
2022/03/17 05:12:32;;;;;;;1.10;1.10;;;;;;;3.00;61.62;102231.55;103424;1280;96613;-65
2022/03/17 05:15:00;;;;;;;1.00;1.00;;;;;;;2.94;62.11;102230.44;103015;1281;138707;-63
2022/03/17 05:17:29;;;;;;;1.10;1.10;;;;;;;2.89;62.07;102232.39;103395;1281;99307;-64
2022/03/17 05:19:57;;;;;;;1.10;1.10;;;;;;;2.88;62.14;102232.02;103148;1281;138617;-64
2022/03/17 05:22:26;;;;;;;1.10;1.10;;;;;;;2.97;62.21;102234.96;103362;1281;96607;-64
2022/03/17 05:24:53;;;;;;;1.10;1.10;;;;;;;2.96;62.22;102237.70;103470;1281;97909;-64
2022/03/17 05:27:22;;;;;;;1.10;1.10;;;;;;;2.94;62.37;102236.93;102960;1282;138489;-65
2022/03/17 05:29:50;;;;;;;1.10;1.10;;;;;;;2.93;61.98;102238.48;103179;1281;99404;-62
2022/03/17 05:32:18;;;;;;;1.30;1.30;;;;;;;2.93;62.37;102241.29;103141;1281;138586;-64
2022/03/17 05:34:45;;;;;;;1.00;1.00;;;;;;;2.90;62.66;102245.77;103116;1281;96643;-64
2022/03/17 05:37:13;;;;;;;1.10;1.10;;;;;;;2.92;62.49;102248.79;102936;1284;138711;-64
2022/03/17 05:39:41;;;;;;;1.20;1.20;;;;;;;2.89;62.51;102251.13;103113;1281;111297;-64
2022/03/17 05:42:09;;;;;;;1.20;1.20;;;;;;;2.81;62.77;102256.13;103131;1281;99570;-63
2022/03/17 05:44:37;;;;;;;1.20;1.20;;;;;;;2.81;62.70;102263.69;102892;1281;138819;-66
2022/03/17 05:47:05;;;;;;;1.10;1.10;;;;;;;2.88;62.85;102266.00;103133;1281;97149;-63
2022/03/17 05:49:33;;;;;;;1.10;1.10;;;;;;;2.93;62.66;102268.84;103221;1281;138826;-65
2022/03/17 05:52:01;;;;;;;1.30;1.30;;;;;;;3.00;62.54;102272.23;103061;1281;110989;-65
2022/03/17 05:54:29;;;;;;;1.10;1.10;;;;;;;3.03;62.75;102275.84;103181;1281;99311;-64
2022/03/17 05:56:57;;;;;;;1.30;1.30;;;;;;;3.05;62.40;102276.80;103089;1281;138662;-63
2022/03/17 05:59:25;;;;;;;1.20;1.20;;;;;;;3.11;62.54;102278.60;103120;1281;97806;-64
2022/03/17 06:01:52;;;;;;;1.10;1.10;;;;;;;3.12;62.56;102275.30;103045;1281;138788;-65
2022/03/17 06:04:41;;;;;;;1.10;1.10;;;;;;;3.15;62.23;102279.09;103209;1281;111407;-64
2022/03/17 06:07:10;;;;;;;1.10;1.10;;;;;;;3.17;62.74;102279.86;103088;1281;139099;-63
2022/03/17 06:09:38;;;;;;;1.00;1.00;;;;;;;3.25;62.42;102284.69;103120;1281;108969;-65
2022/03/17 06:12:08;;;;;;;1.10;1.10;;;;;;;3.41;62.01;102279.77;103096;1281;97810;-65
2022/03/17 06:14:36;;;;;;;1.00;1.00;;;;;;;3.50;61.86;102278.52;103175;1281;138640;-63
2022/03/17 06:17:04;;;;;;;1.00;1.00;;;;;;;3.46;61.85;102283.11;103007;1282;111362;-64
2022/03/17 06:19:32;;;;;;;1.10;1.10;;;;;;;3.42;62.13;102287.54;103061;1281;139209;-63
2022/03/17 06:22:00;;;;;;;1.10;1.10;;;;;;;3.45;62.23;102285.17;103106;1281;109240;-64
2022/03/17 06:24:28;;;;;;;1.10;1.10;;;;;;;3.52;61.98;102278.56;103095;1281;97121;-64
2022/03/17 06:26:55;;;;;;;1.00;1.00;;;;;;;3.59;61.91;102278.80;102958;1281;138485;-65
2022/03/17 06:29:23;;;;;;;1.00;1.00;;;;;;;3.67;61.46;102275.01;103037;1281;111238;-65
2022/03/17 06:31:51;;;;;;;1.00;1.00;;;;;;;3.70;61.77;102275.45;102931;1281;139350;-65
2022/03/17 06:34:19;;;;;;;0.90;0.90;;;;;;;3.69;61.54;102273.48;103084;1281;108551;-65
2022/03/17 06:36:47;;;;;;;1.00;1.00;;;;;;;3.75;61.65;102277.38;103212;1281;97957;-65
2022/03/17 06:39:14;;;;;;;1.00;1.00;;;;;;;3.90;61.47;102283.11;102938;1282;139044;-65
2022/03/17 06:41:42;;;;;;;1.00;1.00;;;;;;;4.00;61.30;102290.28;103156;1281;110947;-64
2022/03/17 06:44:10;;;;;;;1.00;1.00;;;;;;;4.10;60.98;102294.98;103067;1281;138337;-65
2022/03/17 06:46:38;;;;;;;0.90;0.90;;;;;;;4.21;60.90;102299.19;103097;1281;109147;-64
2022/03/17 06:49:06;;;;;;;1.00;1.00;;;;;;;4.37;60.62;102299.34;103093;1281;139216;-65
2022/03/17 06:51:33;;;;;;;1.00;1.00;;;;;;;4.51;60.06;102300.45;103118;1284;96587;-64
2022/03/17 06:54:01;;;;;;;0.90;0.90;;;;;;;4.54;59.65;102299.29;103120;1281;111622;-63
2022/03/17 06:56:30;;;;;;;0.90;0.90;;;;;;;4.53;59.64;102301.89;103155;1281;138362;-67
2022/03/17 06:58:58;;;;;;;0.90;0.90;;;;;;;4.56;59.59;102302.68;103207;1281;108796;-65
2022/03/17 07:01:25;;;;;;;0.90;0.90;;;;;;;4.59;59.48;102308.92;103048;1281;138615;-64
2022/03/17 07:03:53;;;;;;;1.00;1.00;;;;;;;4.70;59.51;102312.42;103266;1281;96885;-65
2022/03/17 07:06:21;;;;;;;0.90;0.90;;;;;;;4.82;59.02;102316.10;103290;1281;111011;-65
2022/03/17 07:08:49;;;;;;;0.90;0.90;;;;;;;4.94;58.62;102317.33;102954;1281;139338;-65
2022/03/17 07:11:20;;;;;;;0.80;0.80;;;;;;;4.96;58.14;102318.61;103095;1284;108874;-65
2022/03/17 07:13:48;;;;;;;0.90;0.90;;;;;;;4.86;58.02;102325.72;103094;1281;138800;-63
2022/03/17 07:16:15;;;;;;;0.80;0.80;;;;;;;4.83;58.27;102324.92;103382;1281;97781;-60
2022/03/17 07:18:43;;;;;;;1.00;1.00;;;;;;;4.80;58.43;102325.90;103288;1281;111574;-65
2022/03/17 07:21:12;;;;;;;0.90;0.90;;;;;;;4.85;58.44;102326.91;103206;1281;138709;-64
2022/03/17 07:23:40;;;;;;;0.90;0.90;;;;;;;4.90;58.25;102324.41;103195;1282;108785;-65
2022/03/17 07:26:08;;;;;;;1.00;1.00;;;;;;;5.05;58.31;102328.71;103141;1281;138112;-64
2022/03/17 07:28:35;;;;;;;0.90;0.90;;;;;;;5.12;57.45;102333.15;103161;1282;96875;-63
2022/03/17 07:31:03;;;;;;;0.80;0.80;;;;;;;5.21;57.14;102335.83;103172;1281;138727;-64
2022/03/17 07:33:32;;;;;;;0.90;0.90;;;;;;;5.21;56.89;102337.94;103398;1281;98541;-64
2022/03/17 07:36:00;;;;;;;0.80;0.80;;;;;;;5.28;56.98;102337.09;103258;1281;108885;-64
2022/03/17 07:38:28;;;;;;;0.90;0.90;;;;;;;5.37;56.65;102339.27;103056;1282;138841;-65
2022/03/17 07:40:55;;;;;;;0.80;0.80;;;;;;;5.46;56.69;102341.24;103248;1280;96918;-66
2022/03/17 07:43:25;;;;;;;0.80;0.80;;;;;;;5.57;56.28;102346.81;103053;1282;138890;-63
2022/03/17 07:46:16;;;;;;;0.80;0.80;;;;;;;5.60;56.04;102347.42;101910;1282;99412;-64
2022/03/17 07:49:02;;;;;;;0.80;0.80;;;;;;;5.65;55.95;102344.55;103228;1281;138915;-63
2022/03/17 07:51:36;;;;;;;0.80;0.80;;;;;;;5.82;55.90;102350.09;102899;1282;96705;-64
2022/03/17 07:54:05;;;;;;;0.80;0.80;;;;;;;5.89;55.09;102348.67;103058;1281;96990;-64
2022/03/17 07:56:33;;;;;;;0.90;0.90;;;;;;;5.89;54.84;102351.51;102905;1281;138965;-63
2022/03/17 07:59:02;;;;;;;0.70;0.70;;;;;;;5.92;54.77;102353.15;102846;1281;99409;-64
2022/03/17 08:01:31;;;;;;;0.80;0.80;;;;;;;5.98;54.76;102356.16;102832;1282;138721;-64
2022/03/17 08:03:59;;;;;;;0.80;0.80;;;;;;;6.10;54.88;102358.04;103006;1280;97827;-63
2022/03/17 08:06:27;;;;;;;0.80;0.80;;;;;;;6.24;54.27;102361.02;103073;1281;96676;-63
2022/03/17 08:08:56;;;;;;;0.70;0.70;;;;;;;6.35;53.93;102361.96;102808;1281;138381;-63
2022/03/17 08:11:24;;;;;;;0.80;0.80;;;;;;;6.46;53.62;102365.39;103076;1280;99368;-64
2022/03/17 08:13:52;;;;;;;0.70;0.70;;;;;;;6.50;52.92;102363.72;102959;1281;138230;-63
2022/03/17 08:16:20;;;;;;;0.80;0.80;;;;;;;6.55;52.90;102365.93;103010;1282;97055;-63
2022/03/17 08:18:49;;;;;;;0.70;0.70;;;;;;;6.70;52.78;102371.55;104210;1281;96559;-63
2022/03/17 08:21:19;;;;;;;0.70;0.70;;;;;;;6.84;52.27;102374.33;102857;1282;139604;-65
2022/03/17 08:23:46;;;;;;;0.70;0.70;;;;;;;6.96;52.37;102378.28;102996;1282;99771;-63
2022/03/17 08:26:16;;;;;;;0.70;0.70;;;;;;;7.09;51.94;102379.59;102919;1281;138632;-64
2022/03/17 08:28:44;;;;;;;0.70;0.70;;;;;;;7.12;51.73;102378.41;102852;1281;96782;-64
2022/03/17 08:31:14;;;;;;;0.60;0.60;;;;;;;7.17;51.41;102376.94;102898;1281;138387;-63
2022/03/17 08:33:42;;;;;;;0.70;0.70;;;;;;;7.30;51.39;102378.23;103707;1281;111083;-64
2022/03/17 08:36:10;;;;;;;0.60;0.60;;;;;;;7.54;51.42;102372.67;102996;1281;98345;-64
2022/03/17 08:38:37;;;;;;;0.60;0.60;;;;;;;7.65;50.02;102372.34;103003;1281;138130;-63
2022/03/17 08:41:05;;;;;;;0.60;0.60;;;;;;;7.78;50.21;102373.63;102902;1282;96665;-64
2022/03/17 08:43:33;;;;;;;0.60;0.60;;;;;;;7.85;49.17;102378.52;102871;1282;138807;-64
2022/03/17 08:51:35;;;;;;;0.50;0.50;;;;;;;8.03;48.68;102375.27;102825;1282;138386;-63
2022/03/17 08:54:03;;;;;;;0.50;0.50;;;;;;;8.05;48.10;102374.96;102858;1282;97359;-62
2022/03/17 08:56:32;;;;;;;0.60;0.60;;;;;;;8.02;48.18;102376.14;103129;1281;138165;-64
2022/03/17 08:59:02;;;;;;;0.60;0.60;;;;;;;8.00;48.12;102377.71;103545;1282;111042;-62
2022/03/17 09:01:30;;;;;;;0.60;0.60;;;;;;;8.18;48.30;102378.17;103330;1281;138415;-64
2022/03/17 09:03:59;;;;;;;0.60;0.60;;;;;;;8.31;47.12;102380.66;103170;1282;108813;-63
2022/03/17 09:06:27;;;;;;;0.60;0.60;;;;;;;8.40;46.89;102379.92;103018;1281;96611;-63
2022/03/17 09:08:54;;;;;;;0.60;0.60;;;;;;;8.72;46.63;102377.36;103135;1281;138150;-63
2022/03/17 09:11:22;;;;;;;0.50;0.50;;;;;;;9.65;45.02;102374.48;103143;1281;110948;-62
2022/03/17 09:13:50;;;;;;;0.50;0.50;;;;;;;11.40;40.32;102371.96;103092;1279;138499;-63
2022/03/17 09:16:19;;;;;;;0.50;0.50;;;;;;;12.75;36.87;102363.52;103231;1281;109060;-64
2022/03/17 09:18:47;;;;;;;0.40;0.30;;;;;;;13.82;35.15;102360.60;103335;1282;97093;-63
2022/03/17 09:21:17;;;;;;;0.40;0.20;;;;;;;15.16;33.81;102360.56;103032;1282;138569;-63
2022/03/17 09:23:45;;;;;;;0.40;0.20;;;;;;;16.11;31.37;102360.36;103259;1281;111085;-64
2022/03/17 09:26:14;;;;;;;0.40;0.20;;;;;;;16.83;29.79;102361.33;103418;1282;140964;-63
2022/03/17 09:28:43;;;;;;;0.40;0.10;;;;;;;17.45;29.59;102360.50;103194;1281;109330;-64
2022/03/17 09:31:11;;;;;;;0.40;0.20;;;;;;;17.83;28.56;102359.42;103027;1281;139540;-64
2022/03/17 09:33:40;;;;;;;0.40;0.10;;;;;;;17.20;29.08;102361.78;103120;1279;97358;-63
2022/03/17 09:36:09;;;;;;;0.40;0.10;;;;;;;18.01;29.60;102358.59;103591;1281;111833;-63
2022/03/17 09:38:37;;;;;;;0.40;0.10;;;;;;;18.66;27.32;102358.99;102967;1282;139586;-64
2022/03/17 09:41:25;;;;;;;0.40;0.10;;;;;;;17.72;27.72;102360.73;103448;1282;109032;-63
2022/03/17 09:43:53;;;;;;;0.40;0.10;;;;;;;16.97;28.69;102365.52;103009;1282;138872;-64
2022/03/17 09:46:21;;;;;;;0.40;0.10;;;;;;;16.69;29.12;102367.34;103056;1281;96595;-64
2022/03/17 09:48:53;;;;;;;0.40;0.10;;;;;;;17.07;28.55;102369.09;103281;1281;111107;-64
2022/03/17 09:51:26;;;;;;;0.40;0.10;;;;;;;17.34;27.95;102368.66;103013;1281;138654;-64
2022/03/17 09:53:59;;;;;;;0.40;0.10;;;;;;;17.82;27.86;102365.91;103290;1281;107928;-63
2022/03/17 09:56:28;;;;;;;0.40;0.10;;;;;;;18.45;26.88;102366.77;102940;1282;138608;-63
2022/03/17 09:58:58;;;;;;;0.40;0.10;;;;;;;19.15;26.01;102371.08;103197;1281;96625;-64
2022/03/17 10:01:26;;;;;;;0.40;0.10;;;;;;;19.57;24.98;102369.94;103171;1281;139558;-64
2022/03/17 10:04:02;;;;;;;0.40;0.10;;;;;;;19.86;24.12;102363.61;103251;1281;100941;-63
2022/03/17 10:06:30;;;;;;;0.40;0.10;;;;;;;20.16;23.99;102362.74;103169;1281;108652;-63
2022/03/17 10:08:59;;;;;;;0.40;0.10;;;;;;;20.59;23.64;102364.98;103200;1281;139456;-63
2022/03/17 10:11:30;;;;;;;0.40;0.10;;;;;;;21.11;23.16;102364.34;103267;1281;96573;-63
2022/03/17 10:14:05;;;;;;;0.40;0.00;;;;;;;21.51;22.32;102357.70;103251;1281;138456;-62
2022/03/17 10:16:33;;;;;;;0.40;0.10;;;;;;;21.53;21.83;102359.06;103158;1281;99391;-63
2022/03/17 10:19:09;;;;;;;0.40;0.00;;;;;;;21.64;21.50;102364.77;103463;1280;108983;-63
2022/03/17 10:21:38;;;;;;;0.40;0.00;;;;;;;21.40;21.32;102360.30;103051;1281;138553;-62
2022/03/17 10:24:09;;;;;;;0.40;0.10;;;;;;;21.51;21.55;102357.71;103243;1281;97410;-63
2022/03/17 10:26:50;;;;;;;0.40;0.00;;;;;;;21.81;21.36;102357.40;103105;1281;138542;-63
2022/03/17 10:29:25;;;;;;;0.40;0.00;;;;;;;22.51;21.55;102351.95;103154;1281;99526;-62
2022/03/17 10:32:05;;;;;;;0.40;0.00;;;;;;;22.89;20.47;102353.66;103104;1281;139153;-61
2022/03/17 10:34:55;;;;;;;0.40;0.00;;;;;;;22.80;20.33;102359.00;103259;1281;96798;-64
2022/03/17 10:37:24;;;;;;;0.40;0.00;;;;;;;22.59;20.71;102355.95;103155;1281;138690;-62
2022/03/17 10:39:54;;;;;;;0.40;0.00;;;;;;;23.02;20.60;102355.42;103137;1282;111834;-63
2022/03/17 10:42:25;;;;;;;0.40;0.00;;;;;;;23.01;20.46;102352.98;103203;1282;99581;-63
2022/03/17 10:44:58;;;;;;;0.40;0.00;;;;;;;23.49;19.83;102351.56;103148;1281;138582;-63
2022/03/17 10:47:35;;;;;;;0.40;0.00;;;;;;;22.58;19.99;102352.71;103890;1281;97085;-63
2022/03/17 10:50:22;;;;;;;0.40;0.00;;;;;;;20.61;21.87;102352.09;103156;1281;139168;-64
2022/03/17 10:52:58;;;;;;;0.40;0.00;;;;;;;19.77;23.03;102360.98;103301;1281;111328;-63
2022/03/17 10:55:30;;;;;;;0.40;0.00;;;;;;;18.73;24.49;102355.74;103294;1281;138866;-64
2022/03/17 10:58:15;;;;;;;0.40;0.00;;;;;;;17.49;25.76;102358.77;102968;1281;108854;-65
2022/03/17 11:00:46;;;;;;;0.40;0.10;;;;;;;16.57;27.30;102351.79;103257;1281;96887;-63
2022/03/17 11:03:15;;;;;;;0.40;0.10;;;;;;;15.90;28.39;102349.25;102938;1282;139018;-62
2022/03/17 11:05:43;;;;;;;0.40;0.10;;;;;;;15.27;29.53;102349.88;103399;1281;111069;-64
2022/03/17 11:08:11;;;;;;;0.40;0.10;;;;;;;14.97;30.24;102352.98;102958;1282;138716;-64
2022/03/17 11:10:40;;;;;;;0.40;0.10;;;;;;;14.53;30.72;102347.95;103068;1282;108999;-62
2022/03/17 11:13:11;;;;;;;0.40;0.10;;;;;;;14.02;31.61;102347.41;103604;1281;97361;-63
2022/03/17 11:15:46;;;;;;;0.40;0.20;;;;;;;13.71;32.31;102341.77;103060;1281;138311;-65
2022/03/17 11:18:16;;;;;;;0.40;0.10;;;;;;;13.58;32.28;102344.02;103264;1281;111102;-62
2022/03/17 11:20:45;;;;;;;0.40;0.20;;;;;;;13.37;32.84;102345.95;103215;1282;139083;-63
2022/03/17 11:23:22;;;;;;;0.40;0.20;;;;;;;13.04;33.47;102345.59;103195;1281;108846;-63
2022/03/17 11:25:55;;;;;;;0.40;0.20;;;;;;;12.81;34.10;102349.25;103219;1281;138966;-63
2022/03/17 11:28:40;;;;;;;0.40;0.20;;;;;;;12.61;34.15;102349.16;103983;1281;96563;-64
2022/03/17 11:31:09;;;;;;;0.40;0.20;;;;;;;12.36;34.55;102350.12;103236;1281;111208;-63
2022/03/17 11:33:44;;;;;;;0.40;0.20;;;;;;;12.08;35.17;102346.79;103242;1281;139085;-64
2022/03/17 11:36:24;;;;;;;0.40;0.20;;;;;;;11.95;35.33;102348.91;103309;1281;108439;-64
2022/03/17 11:39:02;;;;;;;0.40;0.20;;;;;;;12.05;35.51;102345.73;103072;1281;138843;-64
2022/03/17 11:41:33;;;;;;;0.40;0.30;;;;;;;12.05;35.34;102350.88;103320;1281;97128;-61
2022/03/17 11:44:03;;;;;;;0.40;0.20;;;;;;;11.99;35.62;102351.05;103121;1281;138698;-64
2022/03/17 11:46:45;;;;;;;0.40;0.20;;;;;;;11.92;35.57;102348.90;103471;1280;99424;-64